createdAt,value
2023-05-16T00:01:17.819Z,88.71
2023-05-16T00:03:45.068Z,88.47
2023-05-16T00:06:12.500Z,88.59
2023-05-16T00:08:39.988Z,88.54
2023-05-16T00:11:07.156Z,88.56
2023-05-16T00:13:34.208Z,88.74
2023-05-16T00:16:02.049Z,88.63
2023-05-16T00:18:29.705Z,88.75
2023-05-16T00:20:56.650Z,88.78
2023-05-16T00:23:23.524Z,88.84
2023-05-16T00:25:50.524Z,88.81
2023-05-16T00:28:17.795Z,88.86
2023-05-16T00:30:44.850Z,88.96
2023-05-16T00:33:12.032Z,88.81
2023-05-16T00:35:38.994Z,88.89
2023-05-16T00:38:06.088Z,88.78
2023-05-16T00:40:33.238Z,88.87
2023-05-16T00:43:00.239Z,88.91
2023-05-16T00:45:28.261Z,88.98
2023-05-16T00:47:56.544Z,88.93
2023-05-16T00:50:23.726Z,89.08
2023-05-16T00:52:50.809Z,89.03
2023-05-16T00:55:18.013Z,88.93
2023-05-16T00:57:45.012Z,88.97
2023-05-16T01:00:15.023Z,89.00
2023-05-16T01:02:42.615Z,88.95
2023-05-16T01:05:12.523Z,89.01
2023-05-16T01:07:39.862Z,88.86
2023-05-16T01:10:08.960Z,89.09
2023-05-16T01:12:51.851Z,89.00
2023-05-16T01:15:32.209Z,88.96
2023-05-16T01:18:18.649Z,88.90
2023-05-16T01:20:56.354Z,88.86
2023-05-16T01:23:32.729Z,88.81
2023-05-16T01:26:19.649Z,88.92
2023-05-16T01:28:48.680Z,89.05
2023-05-16T01:31:16.057Z,88.77
2023-05-16T01:33:45.039Z,88.88
2023-05-16T01:36:39.510Z,88.73
2023-05-16T01:39:15.698Z,88.55
2023-05-16T01:42:04.132Z,88.54
2023-05-16T01:44:35.739Z,88.84
2023-05-16T01:47:09.718Z,88.60
2023-05-16T01:50:03.546Z,88.87
2023-05-16T01:52:42.158Z,89.04
2023-05-16T01:55:36.397Z,89.17
2023-05-16T01:58:06.945Z,89.56
2023-05-16T02:00:34.359Z,89.50
2023-05-16T02:03:02.081Z,89.48
2023-05-16T02:05:29.421Z,89.51
2023-05-16T02:07:59.060Z,89.48
2023-05-16T02:10:26.952Z,89.60
2023-05-16T02:12:54.009Z,89.35
2023-05-16T02:15:21.028Z,89.36
2023-05-16T02:17:49.070Z,89.42
2023-05-16T02:20:16.511Z,89.54
2023-05-16T02:22:43.892Z,89.45
2023-05-16T02:25:10.946Z,89.59
2023-05-16T02:27:37.897Z,89.54
2023-05-16T02:30:06.221Z,89.57
2023-05-16T02:32:33.370Z,89.59
2023-05-16T02:35:00.391Z,89.69
2023-05-16T02:37:27.531Z,89.71
2023-05-16T02:39:54.527Z,89.72
2023-05-16T02:42:21.510Z,89.92
2023-05-16T02:44:49.098Z,90.18
2023-05-16T02:47:16.200Z,89.97
2023-05-16T02:49:43.720Z,89.81
2023-05-16T02:52:11.483Z,89.86
2023-05-16T02:54:38.454Z,89.74
2023-05-16T02:57:05.547Z,89.91
2023-05-16T02:59:32.590Z,89.88
2023-05-16T03:01:59.682Z,89.96
2023-05-16T03:04:26.954Z,90.03
2023-05-16T03:06:54.259Z,89.94
2023-05-16T03:09:21.394Z,90.04
2023-05-16T03:11:48.374Z,90.19
2023-05-16T03:14:15.425Z,90.10
2023-05-16T03:16:43.493Z,90.12
2023-05-16T03:19:10.625Z,90.29
2023-05-16T03:21:37.648Z,90.43
2023-05-16T03:24:07.604Z,90.53
2023-05-16T03:26:35.455Z,90.59
2023-05-16T03:29:02.404Z,90.61
2023-05-16T03:31:31.579Z,90.70
2023-05-16T03:33:58.994Z,90.76
2023-05-16T03:36:27.040Z,90.83
2023-05-16T03:38:54.121Z,90.81
2023-05-16T03:41:21.772Z,90.88
2023-05-16T03:43:48.901Z,90.89
2023-05-16T03:46:15.895Z,90.78
2023-05-16T03:48:42.909Z,91.00
2023-05-16T03:51:09.977Z,91.05
2023-05-16T03:53:37.056Z,91.14
2023-05-16T03:56:04.250Z,91.97
2023-05-16T03:58:31.304Z,91.85
2023-05-16T04:00:58.332Z,91.43
2023-05-16T04:03:27.991Z,91.27
2023-05-16T04:05:55.912Z,91.19
2023-05-16T04:08:23.101Z,91.30
2023-05-16T04:10:50.098Z,91.58
2023-05-16T04:13:17.630Z,91.41
2023-05-16T04:15:44.659Z,91.49
2023-05-16T04:18:12.988Z,91.80
2023-05-16T04:20:42.294Z,91.97
2023-05-16T04:23:11.414Z,92.03
2023-05-16T04:25:38.771Z,91.94
2023-05-16T04:28:06.444Z,91.96
2023-05-16T04:30:33.365Z,91.85
2023-05-16T04:33:00.935Z,91.85
2023-05-16T04:35:28.371Z,91.75
2023-05-16T04:37:56.334Z,91.72
2023-05-16T04:40:24.793Z,91.52
2023-05-16T04:42:52.849Z,91.39
2023-05-16T04:45:20.514Z,91.38
2023-05-16T04:47:47.618Z,91.22
2023-05-16T04:50:15.678Z,91.09
2023-05-16T04:52:42.706Z,91.02
2023-05-16T04:55:10.525Z,90.84
2023-05-16T04:57:37.638Z,90.94
2023-05-16T05:00:11.434Z,90.83
2023-05-16T05:02:39.122Z,90.63
2023-05-16T05:05:07.063Z,90.57
2023-05-16T05:07:34.196Z,90.31
2023-05-16T05:10:01.487Z,90.22
2023-05-16T05:12:28.590Z,90.12
2023-05-16T05:14:55.561Z,90.05
2023-05-16T05:17:23.171Z,89.61
2023-05-16T05:19:50.524Z,89.82
2023-05-16T05:22:17.459Z,89.63
2023-05-16T05:24:45.848Z,89.68
2023-05-16T05:27:13.018Z,89.51
2023-05-16T05:29:40.229Z,88.92
2023-05-16T05:32:08.196Z,88.63
2023-05-16T05:34:35.371Z,88.60
2023-05-16T05:37:02.435Z,88.70
2023-05-16T05:39:29.496Z,88.19
2023-05-16T05:41:56.749Z,87.98
2023-05-16T05:44:23.798Z,87.58
2023-05-16T05:46:51.116Z,87.35
2023-05-16T05:49:18.316Z,87.29
2023-05-16T05:51:45.463Z,86.96
2023-05-16T05:54:12.835Z,86.63
2023-05-16T05:56:39.989Z,86.21
2023-05-16T05:59:07.239Z,85.91
2023-05-16T06:01:34.451Z,85.53
2023-05-16T06:04:02.408Z,85.28
2023-05-16T06:06:29.538Z,84.85
2023-05-16T06:08:57.101Z,84.46
2023-05-16T06:11:24.983Z,84.18
2023-05-16T06:13:52.643Z,83.84
2023-05-16T06:16:23.487Z,83.23
2023-05-16T06:18:50.847Z,82.78
2023-05-16T06:21:17.980Z,82.24
2023-05-16T06:23:45.153Z,81.35
2023-05-16T06:26:12.402Z,81.16
2023-05-16T06:28:39.415Z,80.87
2023-05-16T06:31:06.686Z,80.78
2023-05-16T06:33:33.871Z,79.97
2023-05-16T06:36:01.047Z,79.39
2023-05-16T06:38:28.377Z,78.95
2023-05-16T06:40:55.436Z,78.03
2023-05-16T06:43:23.121Z,77.17
2023-05-16T06:45:50.672Z,77.68
2023-05-16T06:48:18.715Z,77.26
2023-05-16T06:50:51.429Z,76.45
2023-05-16T06:53:19.104Z,76.28
2023-05-16T06:55:46.990Z,75.65
2023-05-16T06:58:14.635Z,75.13
2023-05-16T07:00:41.790Z,74.34
2023-05-16T07:03:08.851Z,73.76
2023-05-16T07:05:36.036Z,73.30
2023-05-16T07:08:04.644Z,72.94
2023-05-16T07:10:33.486Z,72.23
2023-05-16T07:13:01.268Z,71.69
2023-05-16T07:15:28.721Z,71.08
2023-05-16T07:17:56.937Z,70.52
2023-05-16T07:20:24.474Z,69.93
2023-05-16T07:22:51.528Z,68.89
2023-05-16T07:25:18.620Z,68.72
2023-05-16T07:27:45.628Z,68.18
2023-05-16T07:30:13.688Z,67.84
2023-05-16T07:32:42.069Z,66.88
2023-05-16T07:35:09.738Z,66.80
2023-05-16T07:37:36.829Z,66.47
2023-05-16T07:40:04.248Z,66.21
2023-05-16T07:42:31.631Z,65.36
2023-05-16T07:44:58.616Z,64.64
2023-05-16T07:47:26.472Z,63.71
2023-05-16T07:49:53.569Z,63.84
2023-05-16T07:52:20.703Z,63.87
2023-05-16T07:54:47.687Z,63.22
2023-05-16T07:57:15.184Z,63.05
2023-05-16T07:59:45.957Z,62.25
2023-05-16T08:02:13.243Z,61.31
2023-05-16T08:04:40.931Z,61.36
2023-05-16T08:07:09.038Z,60.46
2023-05-16T08:09:36.123Z,60.25
2023-05-16T08:12:03.201Z,59.51
2023-05-16T08:14:33.526Z,59.13
2023-05-16T08:17:00.789Z,58.86
2023-05-16T08:19:28.879Z,58.66
2023-05-16T08:21:56.084Z,58.48
2023-05-16T08:24:23.174Z,57.83
2023-05-16T08:26:50.356Z,57.09
2023-05-16T08:29:25.059Z,56.78
2023-05-16T08:31:52.380Z,57.04
2023-05-16T08:34:19.671Z,56.55
2023-05-16T08:36:46.960Z,56.52
2023-05-16T08:39:14.415Z,56.04
2023-05-16T08:41:41.485Z,56.28
2023-05-16T08:44:10.667Z,56.15
2023-05-16T08:46:40.890Z,55.93
2023-05-16T08:49:09.233Z,55.94
2023-05-16T08:51:37.931Z,55.63
2023-05-16T08:54:12.708Z,55.84
2023-05-16T08:56:41.937Z,55.90
2023-05-16T08:59:11.319Z,55.69
2023-05-16T09:01:38.949Z,55.72
2023-05-16T09:04:07.502Z,55.37
2023-05-16T09:06:36.009Z,54.53
2023-05-16T09:09:04.547Z,54.15
2023-05-16T09:11:32.210Z,54.52
2023-05-16T09:13:59.320Z,54.11
2023-05-16T09:16:26.298Z,54.21
2023-05-16T09:18:56.429Z,52.72
2023-05-16T09:21:31.499Z,53.17
2023-05-16T09:24:08.679Z,53.30
2023-05-16T09:26:38.281Z,53.21
2023-05-16T09:29:13.159Z,52.55
2023-05-16T09:31:40.925Z,53.63
2023-05-16T09:34:10.646Z,52.81
2023-05-16T09:36:38.376Z,52.65
2023-05-16T09:39:08.583Z,53.51
2023-05-16T09:41:36.041Z,53.55
2023-05-16T09:44:06.651Z,53.37
2023-05-16T09:46:35.599Z,53.02
2023-05-16T09:49:02.820Z,53.57
2023-05-16T09:51:31.069Z,53.93
2023-05-16T09:53:59.583Z,53.99
2023-05-16T09:56:26.990Z,53.76
2023-05-16T09:58:54.066Z,54.30
2023-05-16T10:01:22.590Z,54.54
2023-05-16T10:03:50.618Z,54.50
2023-05-16T10:06:18.641Z,54.26
2023-05-16T10:08:46.536Z,54.54
2023-05-16T10:11:14.706Z,55.00
2023-05-16T10:13:41.849Z,55.28
2023-05-16T10:16:14.182Z,54.90
2023-05-16T10:18:42.964Z,55.30
2023-05-16T10:21:17.850Z,55.54
2023-05-16T10:23:49.746Z,55.69
2023-05-16T10:26:17.880Z,56.49
2023-05-16T10:28:45.390Z,56.52
2023-05-16T10:31:14.160Z,56.88
2023-05-16T10:33:41.729Z,57.68
2023-05-16T10:36:10.422Z,57.71
2023-05-16T10:38:38.686Z,58.16
2023-05-16T10:41:07.203Z,59.72
2023-05-16T10:43:34.337Z,60.55
2023-05-16T10:46:09.229Z,61.20
2023-05-16T10:48:40.794Z,61.78
2023-05-16T10:51:23.162Z,62.47
2023-05-16T10:53:54.729Z,63.42
2023-05-16T10:56:23.840Z,63.37
2023-05-16T10:58:53.914Z,63.66
2023-05-16T11:01:25.440Z,64.29
2023-05-16T11:04:02.303Z,64.52
2023-05-16T11:06:57.851Z,64.87
2023-05-16T11:09:27.100Z,64.97
2023-05-16T11:12:05.924Z,64.58
2023-05-16T11:14:33.303Z,64.20
2023-05-16T11:17:10.114Z,64.70
2023-05-16T11:19:58.792Z,64.88
2023-05-16T11:22:30.135Z,63.90
2023-05-16T11:25:03.760Z,64.47
2023-05-16T11:27:33.727Z,63.64
2023-05-16T11:30:06.630Z,63.14
2023-05-16T11:32:35.439Z,63.21
2023-05-16T11:35:04.324Z,62.82
2023-05-16T11:37:31.429Z,63.12
2023-05-16T11:40:09.217Z,64.11
2023-05-16T11:42:41.870Z,64.24
2023-05-16T11:45:15.607Z,64.83
2023-05-16T11:47:47.001Z,65.24
2023-05-16T11:50:19.566Z,65.61
2023-05-16T11:52:49.770Z,65.86
2023-05-16T11:55:28.243Z,66.57
2023-05-16T11:58:01.594Z,66.06
2023-05-16T12:00:29.030Z,66.37
2023-05-16T12:03:02.622Z,66.48
2023-05-16T12:05:31.412Z,67.82
2023-05-16T12:07:59.332Z,67.82
2023-05-16T12:10:26.550Z,67.53
2023-05-16T12:12:55.752Z,67.54
2023-05-16T12:15:22.886Z,67.48
2023-05-16T12:17:50.355Z,67.28
2023-05-16T12:20:18.280Z,67.10
2023-05-16T12:22:46.340Z,66.99
2023-05-16T12:25:28.197Z,67.04
2023-05-16T12:27:57.765Z,67.12
2023-05-16T12:30:27.276Z,67.35
2023-05-16T12:33:24.249Z,67.53
2023-05-16T12:35:52.574Z,68.19
2023-05-16T12:38:21.089Z,67.65
2023-05-16T12:40:48.153Z,67.64
2023-05-16T12:43:24.640Z,67.16
2023-05-16T12:45:54.306Z,67.32
2023-05-16T12:48:22.335Z,67.87
2023-05-16T12:50:50.471Z,68.23
2023-05-16T12:53:18.586Z,68.64
2023-05-16T12:55:46.305Z,68.85
2023-05-16T12:58:13.371Z,68.82
2023-05-16T13:00:40.634Z,68.71
2023-05-16T13:03:08.071Z,68.84
2023-05-16T13:05:35.585Z,68.51
2023-05-16T13:08:03.595Z,67.70
2023-05-16T13:10:30.777Z,67.54
2023-05-16T13:12:59.308Z,66.60
2023-05-16T13:15:26.839Z,66.32
2023-05-16T13:17:54.312Z,66.53
2023-05-16T13:20:21.479Z,66.50
2023-05-16T13:22:48.653Z,66.78
2023-05-16T13:25:15.656Z,66.96
2023-05-16T13:27:42.675Z,67.08
2023-05-16T13:30:09.919Z,67.20
2023-05-16T13:32:37.528Z,67.55
2023-05-16T13:35:05.466Z,67.30
2023-05-16T13:37:32.878Z,67.54
2023-05-16T13:40:00.135Z,67.01
2023-05-16T13:42:27.251Z,66.86
2023-05-16T13:44:54.250Z,67.45
2023-05-16T13:47:21.433Z,67.53
2023-05-16T13:49:48.507Z,67.80
2023-05-16T13:52:15.931Z,68.07
2023-05-16T13:54:42.989Z,68.80
2023-05-16T13:57:10.113Z,69.02
2023-05-16T14:00:05.747Z,68.44
2023-05-16T14:02:28.332Z,68.86
2023-05-16T14:04:55.734Z,69.05
2023-05-16T14:07:22.929Z,68.59
2023-05-16T14:09:50.302Z,68.08
2023-05-16T14:12:17.648Z,68.10
2023-05-16T14:14:45.307Z,68.26
2023-05-16T14:17:12.442Z,68.37
2023-05-16T14:19:39.585Z,68.22
2023-05-16T14:22:07.770Z,67.68
2023-05-16T14:24:34.950Z,67.53
2023-05-16T14:27:02.516Z,67.21
2023-05-16T14:29:29.628Z,66.69
2023-05-16T14:31:56.910Z,66.34
2023-05-16T14:34:24.116Z,66.27
2023-05-16T14:36:51.423Z,66.85
2023-05-16T14:39:18.460Z,67.05
2023-05-16T14:41:45.989Z,67.09
2023-05-16T14:44:13.057Z,67.27
2023-05-16T14:46:40.628Z,66.92
2023-05-16T14:49:08.632Z,66.57
2023-05-16T14:51:35.906Z,66.22
2023-05-16T14:54:03.151Z,66.12
2023-05-16T14:56:31.532Z,66.34
2023-05-16T14:58:59.085Z,66.12
2023-05-16T15:01:26.499Z,65.93
2023-05-16T15:03:55.963Z,65.65
2023-05-16T15:06:24.119Z,65.58
2023-05-16T15:08:51.381Z,65.43
2023-05-16T15:11:18.979Z,65.39
2023-05-16T15:13:46.128Z,65.16
2023-05-16T15:16:13.228Z,64.94
2023-05-16T15:18:41.122Z,64.61
2023-05-16T15:21:08.557Z,64.79
2023-05-16T15:23:36.183Z,64.55
2023-05-16T15:26:03.747Z,64.70
2023-05-16T15:28:30.853Z,64.97
2023-05-16T15:30:57.898Z,64.81
2023-05-16T15:33:25.014Z,64.90
2023-05-16T15:35:52.582Z,64.63
2023-05-16T15:38:19.762Z,64.82
2023-05-16T15:40:47.907Z,64.91
2023-05-16T15:43:17.567Z,65.02
2023-05-16T15:45:45.060Z,65.15
2023-05-16T15:48:12.486Z,65.17
2023-05-16T15:50:39.899Z,65.25
2023-05-16T15:53:06.906Z,65.10
2023-05-16T15:55:34.298Z,65.10
2023-05-16T15:58:01.759Z,65.32
2023-05-16T16:00:28.828Z,65.38
2023-05-16T16:02:55.903Z,65.50
2023-05-16T16:05:23.156Z,65.59
2023-05-16T16:07:50.416Z,65.42
2023-05-16T16:10:17.469Z,65.45
2023-05-16T16:12:58.022Z,65.50
2023-05-16T16:15:25.507Z,66.11
2023-05-16T16:17:52.843Z,66.00
2023-05-16T16:20:20.311Z,65.85
2023-05-16T16:22:47.562Z,65.63
2023-05-16T16:25:14.527Z,65.68
2023-05-16T16:27:42.288Z,65.29
2023-05-16T16:30:10.206Z,65.08
2023-05-16T16:32:37.353Z,64.89
2023-05-16T16:35:05.231Z,64.80
2023-05-16T16:37:32.583Z,64.36
2023-05-16T16:40:00.245Z,64.01
2023-05-16T16:42:29.834Z,63.97
2023-05-16T16:44:57.231Z,63.63
2023-05-16T16:47:24.610Z,63.60
2023-05-16T16:49:51.589Z,63.39
2023-05-16T16:52:18.625Z,63.14
2023-05-16T16:54:45.707Z,63.14
2023-05-16T16:57:12.753Z,62.95
2023-05-16T16:59:39.852Z,62.72
2023-05-16T17:02:07.412Z,62.68
2023-05-16T17:04:34.617Z,62.58
2023-05-16T17:07:01.740Z,62.62
2023-05-16T17:09:28.759Z,62.09
2023-05-16T17:11:55.930Z,61.91
2023-05-16T17:14:23.175Z,61.88
2023-05-16T17:16:50.274Z,61.76
2023-05-16T17:19:17.543Z,61.86
2023-05-16T17:21:44.848Z,61.80
2023-05-16T17:24:12.499Z,61.70
2023-05-16T17:26:39.774Z,61.40
2023-05-16T17:29:06.902Z,61.39
2023-05-16T17:31:34.504Z,61.24
2023-05-16T17:34:01.464Z,61.30
2023-05-16T17:36:28.539Z,61.19
2023-05-16T17:38:55.810Z,61.18
2023-05-16T17:41:23.064Z,60.83
2023-05-16T17:43:50.183Z,60.89
2023-05-16T17:46:17.305Z,61.01
2023-05-16T17:48:44.455Z,61.15
2023-05-16T17:51:11.420Z,61.13
2023-05-16T17:53:38.726Z,61.22
2023-05-16T17:56:07.042Z,61.23
2023-05-16T17:58:34.416Z,61.19
2023-05-16T18:01:04.504Z,61.28
2023-05-16T18:03:31.563Z,61.14
2023-05-16T18:05:58.840Z,61.42
2023-05-16T18:08:25.950Z,62.01
2023-05-16T18:10:52.961Z,61.98
2023-05-16T18:13:21.350Z,62.07
2023-05-16T18:15:48.565Z,62.62
2023-05-16T18:18:17.003Z,63.02
2023-05-16T18:20:45.478Z,63.51
2023-05-16T18:23:12.557Z,63.40
2023-05-16T18:25:39.569Z,63.61
2023-05-16T18:28:07.115Z,64.05
2023-05-16T18:30:35.212Z,64.59
2023-05-16T18:33:04.316Z,64.51
2023-05-16T18:35:31.519Z,64.34
2023-05-16T18:37:58.682Z,64.83
2023-05-16T18:40:25.795Z,65.45
2023-05-16T18:42:52.980Z,65.76
2023-05-16T18:45:21.448Z,65.81
2023-05-16T18:47:48.612Z,66.53
2023-05-16T18:50:16.125Z,66.70
2023-05-16T18:52:43.195Z,67.83
2023-05-16T18:55:10.451Z,68.75
2023-05-16T18:57:37.454Z,69.27
2023-05-16T19:00:06.807Z,69.33
2023-05-16T19:02:41.365Z,69.67
2023-05-16T19:05:10.058Z,69.97
2023-05-16T19:07:37.261Z,70.05
2023-05-16T19:10:05.074Z,70.19
2023-05-16T19:12:32.159Z,70.28
2023-05-16T19:14:59.292Z,70.38
2023-05-16T19:17:26.368Z,70.66
2023-05-16T19:19:53.936Z,71.05
2023-05-16T19:22:21.186Z,71.40
2023-05-16T19:24:48.302Z,71.64
2023-05-16T19:27:15.537Z,71.77
2023-05-16T19:29:42.451Z,72.24
2023-05-16T19:32:10.236Z,72.37
2023-05-16T19:34:37.326Z,72.36
2023-05-16T19:37:04.565Z,72.26
2023-05-16T19:39:31.744Z,72.09
2023-05-16T19:42:06.646Z,71.49
2023-05-16T19:44:34.351Z,71.19
2023-05-16T19:47:01.813Z,70.90
2023-05-16T19:49:31.526Z,70.57
2023-05-16T19:51:58.663Z,70.26
2023-05-16T19:54:25.764Z,70.09
2023-05-16T19:56:52.892Z,69.89
2023-05-16T19:59:21.884Z,69.79
2023-05-16T20:01:48.956Z,69.67
2023-05-16T20:04:16.078Z,69.56
2023-05-16T20:06:43.487Z,69.60
2023-05-16T20:09:10.736Z,69.58
2023-05-16T20:11:37.758Z,69.48
2023-05-16T20:14:04.825Z,69.44
2023-05-16T20:16:32.083Z,69.35
2023-05-16T20:18:59.222Z,69.30
2023-05-16T20:21:26.527Z,69.14
2023-05-16T20:23:53.639Z,69.07
2023-05-16T20:26:21.002Z,68.78
2023-05-16T20:28:48.139Z,68.67
2023-05-16T20:31:15.331Z,68.64
2023-05-16T20:33:42.506Z,68.55
2023-05-16T20:36:09.603Z,68.75
2023-05-16T20:38:38.532Z,68.73
2023-05-16T20:41:05.639Z,68.71
2023-05-16T20:43:32.676Z,68.64
2023-05-16T20:45:59.793Z,68.51
2023-05-16T20:48:26.826Z,68.46
2023-05-16T20:50:54.529Z,68.30
2023-05-16T20:53:22.581Z,68.42
2023-05-16T20:55:49.719Z,68.31
2023-05-16T20:58:16.779Z,68.31
2023-05-16T21:00:43.747Z,68.18
2023-05-16T21:03:11.982Z,68.20
2023-05-16T21:05:39.191Z,68.29
2023-05-16T21:08:06.548Z,68.42
2023-05-16T21:10:33.699Z,67.98
2023-05-16T21:13:00.950Z,67.67
2023-05-16T21:15:28.343Z,67.61
2023-05-16T21:17:55.599Z,67.31
2023-05-16T21:20:22.693Z,67.17
2023-05-16T21:22:49.763Z,67.02
2023-05-16T21:25:16.797Z,67.22
2023-05-16T21:27:44.063Z,68.40
2023-05-16T21:30:11.886Z,69.42
2023-05-16T21:32:39.166Z,69.44
2023-05-16T21:35:06.446Z,70.68
2023-05-16T21:37:33.542Z,72.04
2023-05-16T21:40:00.600Z,70.95
2023-05-16T21:42:27.790Z,70.51
2023-05-16T21:44:54.796Z,70.84
2023-05-16T21:47:21.751Z,71.08
2023-05-16T21:49:49.420Z,71.34
2023-05-16T21:52:16.544Z,71.49
2023-05-16T21:54:43.587Z,72.65
2023-05-16T21:57:10.780Z,72.30
2023-05-16T21:59:37.964Z,72.79
2023-05-16T22:02:05.297Z,72.67
2023-05-16T22:04:33.411Z,72.31
2023-05-16T22:07:00.451Z,72.20
2023-05-16T22:09:27.402Z,72.06
2023-05-16T22:11:54.432Z,71.85
2023-05-16T22:14:21.458Z,71.58
2023-05-16T22:16:48.516Z,71.37
2023-05-16T22:19:15.642Z,71.00
2023-05-16T22:21:42.872Z,70.73
2023-05-16T22:24:10.008Z,70.52
2023-05-16T22:26:37.278Z,70.09
2023-05-16T22:29:04.422Z,69.60
2023-05-16T22:31:31.637Z,69.28
2023-05-16T22:33:58.806Z,68.99
2023-05-16T22:36:25.826Z,68.56
2023-05-16T22:38:52.875Z,68.35
2023-05-16T22:41:20.007Z,68.21
2023-05-16T22:43:47.166Z,68.15
2023-05-16T22:46:14.925Z,67.88
2023-05-16T22:48:42.284Z,67.55
2023-05-16T22:51:09.302Z,67.24
2023-05-16T22:53:36.552Z,66.86
2023-05-16T22:56:03.907Z,66.19
2023-05-16T22:58:31.048Z,66.36
2023-05-16T23:00:58.167Z,66.26
2023-05-16T23:03:26.992Z,66.59
2023-05-16T23:05:55.347Z,66.49
2023-05-16T23:08:22.517Z,66.13
2023-05-16T23:10:49.758Z,65.97
2023-05-16T23:13:16.849Z,66.16
2023-05-16T23:15:44.063Z,66.17
2023-05-16T23:18:11.339Z,66.45
2023-05-16T23:20:38.477Z,66.44
2023-05-16T23:23:05.521Z,67.12
2023-05-16T23:25:32.890Z,67.43
2023-05-16T23:27:59.901Z,67.33
2023-05-16T23:30:26.939Z,67.61
2023-05-16T23:32:54.143Z,67.72
2023-05-16T23:35:21.376Z,69.04
2023-05-16T23:37:48.573Z,69.26
2023-05-16T23:40:15.832Z,69.36
2023-05-16T23:42:42.925Z,69.91
2023-05-16T23:45:10.538Z,70.31
2023-05-16T23:47:37.570Z,70.44
2023-05-16T23:50:05.773Z,71.56
2023-05-16T23:52:32.834Z,71.52
2023-05-16T23:55:00.093Z,71.80
2023-05-16T23:57:27.333Z,71.78
2023-05-16T23:59:54.731Z,72.60
